Ship Status Report: callsign BAREU51

sailwx.info

Track history (hours):
 
Tides and Currents Weather Stations Pressure Air Temp Water Temp Dewpoint Dewpoint Depression Visibility Wind Speed Wind Dir Waves Ship Positions

Callsign BAREU51 (name unknown)

Last reported at 2017-Nov-22 17:00 UTC. Time now 2017-Nov-22 18:14 UTC.
Position N 43°54' E 009°24'.

Barometer 1018.8 mb
Air temperature 16.2 ° C

Date/timePositionNaut miles runAvg speedWind from/ knotsBaromVisibWave heightAir tempDewpointWater temp
2017-Nov-22 17:00N 43°54' E 009°24'2020.0 1018.8 16.2
2017-Nov-22 16:00N 43°36' E 009°36'2222.2 1018.8 16.0
2017-Nov-22 15:00N 43°18' E 009°54'2424.4 1018.7 16.4
2017-Nov-22 14:00N 42°54' E 010°00'2020.0 1018.2 16.7
2017-Nov-22 13:00N 42°36' E 010°12'2525.3 1018.7 16.4
2017-Nov-22 12:00N 42°18' E 010°36'2020.1 1019.2 16.3
2017-Nov-22 11:00N 42°00' E 010°48'2222.4 1019.7 16.4
2017-Nov-22 10:00N 41°42' E 011°06'2625.6 1020.5 17.3
2017-Nov-22 09:00N 41°18' E 011°18'2020.1 1020.4 18.4
2017-Nov-22 08:00N 41°00' E 011°30'2020.2 1020.7 18.2
2017-Nov-22 07:00N 40°42' E 011°42'2020.2 1020.3 17.1
2017-Nov-22 06:00N 40°24' E 011°54'2625.7 1020.5 16.5
2017-Nov-22 05:00N 40°00' E 012°06'2322.7 1020.2 16.5
2017-Nov-22 04:00N 39°42' E 012°24'2020.2 1020.1 16.3
2017-Nov-22 03:00N 39°24' E 012°36'2020.3 1020.3 16.3
2017-Nov-22 02:00N 39°06' E 012°48'2625.8 1020.8 16.5
2017-Nov-22 01:00N 38°42' E 013°00'4120.3 1020.7 16.5
2017-Nov-21 23:00N 38°06' E 013°24'0 0.0 1021.4 16.1
2017-Nov-21 18:00N 38°06' E 013°24'1918.6 1021.0 17.2
2017-Nov-21 17:00N 38°24' E 013°18'2322.9 1020.7 16.9
2017-Nov-21 16:00N 38°42' E 013°00'2020.3 1020.1 16.8
2017-Nov-21 15:00N 39°00' E 012°48'2625.7 1019.8 17.3
2017-Nov-21 14:00N 39°24' E 012°36'1515.2 1019.5 16.8
2017-Nov-21 13:00N 39°36' E 012°24'2625.7 1019.5 17.5
2017-Nov-21 12:00N 40°00' E 012°12'2020.2 1019.7 18.2
2017-Nov-21 11:00N 40°18' E 012°00'2322.6 1019.9 17.9
2017-Nov-21 10:00N 40°36' E 011°42'2625.7 1020.2 17.3
2017-Nov-21 09:00N 41°00' E 011°30'2020.1 1020.0 16.7
2017-Nov-21 08:00N 41°18' E 011°18'2625.6 1020.0 15.3
2017-Nov-21 07:00N 41°42' E 011°06'2222.4 1019.1 14.8
2017-Nov-21 06:00N 42°00' E 010°48'2020.1 1018.3 14.9
2017-Nov-21 05:00N 42°18' E 010°36'2222.4 1017.8 15.4
2017-Nov-21 04:00N 42°36' E 010°18'2222.3 1017.9 15.3
2017-Nov-21 03:00N 42°54' E 010°00'1918.5 1017.9 15.4
2017-Nov-21 02:00N 43°12' E 009°54'2222.3 1017.9 16.1
2017-Nov-21 01:00N 43°30' E 009°36'2020.0 1018.0 15.9
2017-Nov-21 00:00N 43°48' E 009°24'2222.2 1018.5 15.7
2017-Nov-20 23:00N 44°06' E 009°06'2019.9 1018.2 15.7
2017-Nov-20 22:00N 44°24' E 008°54'0 0.0 1019.2 14.2
2017-Nov-20 08:00N 44°24' E 008°54'0 0.0 1019.9 13.4
2017-Nov-19 22:00N 44°24' E 008°54'4 4.3 1016.6 12.3
2017-Nov-19 21:00N 44°24' E 009°00'2525.5 1015.3 14.3
2017-Nov-19 20:00N 44°00' E 009°12'2222.2 1014.8 14.9
2017-Nov-19 19:00N 43°42' E 009°30'2020.0 1013.9 15.3
2017-Nov-19 18:00N 43°24' E 009°42'2222.3 1013.3 15.4
2017-Nov-19 17:00N 43°06' E 010°00'2424.4 1012.7 15.6
2017-Nov-19 16:00N 42°42' E 010°06'1817.9 1012.9 14.6
2017-Nov-19 15:00N 42°30' E 010°24'2222.4 1012.4 15.2
2017-Nov-19 14:00N 42°12' E 010°42'2625.6 1012.0 15.2
2017-Nov-19 13:00N 41°48' E 010°54'2020.1 1012.2 15.4
2017-Nov-19 12:00N 41°30' E 011°06'2020.1 1013.9 15.6
2017-Nov-19 11:00N 41°12' E 011°18'2020.1 1014.1 16.2
2017-Nov-19 10:00N 40°54' E 011°30'2827.6 1014.3 16.2
2017-Nov-19 09:00N 40°30' E 011°48'2020.2 1014.4 16.3
2017-Nov-19 08:00N 40°12' E 012°00'2020.2 1014.5 16.4
2017-Nov-19 07:00N 39°54' E 012°12'2020.2 1014.4 15.9
2017-Nov-19 06:00N 39°36' E 012°24'2020.2 1013.8 15.8
2017-Nov-19 05:00N 39°18' E 012°36'2020.3 1013.3 15.8
2017-Nov-19 04:00N 39°00' E 012°48'2020.3 1012.9 16.7
2017-Nov-19 03:00N 38°42' E 013°00'2322.9 1013.3 16.6
2017-Nov-19 02:00N 38°24' E 013°18'19 3.1 1013.2 16.7
2017-Nov-18 20:00N 38°06' E 013°24'1312.9 1015.3 16.7
2017-Nov-18 19:00N 38°18' E 013°18'2020.3 1014.7 17.2
2017-Nov-18 18:00N 38°36' E 013°06'2625.8 1014.3 17.0
2017-Nov-18 17:00N 39°00' E 012°54'2322.8 1014.1 16.9
2017-Nov-18 16:00N 39°18' E 012°36'2020.2 1013.7 16.5
2017-Nov-18 15:00N 39°36' E 012°24'2625.7 1013.4 16.4
2017-Nov-18 14:00N 40°00' E 012°12'2322.7 1013.6 16.9
2017-Nov-18 13:00N 40°18' E 011°54'2625.7 1013.7 17.7
2017-Nov-18 12:00N 40°42' E 011°42'2020.2 1014.1 16.8
2017-Nov-18 11:00N 41°00' E 011°30'2020.1 1014.5 16.2
2017-Nov-18 10:00N 41°18' E 011°18'2625.6 1015.1 14.7
2017-Nov-18 09:00N 41°42' E 011°06'2222.4 1015.2 13.9
2017-Nov-18 08:00N 42°00' E 010°48'2020.1 1015.2 14.4
2017-Nov-18 07:00N 42°18' E 010°36'2222.4 1014.7 13.4
2017-Nov-18 06:00N 42°36' E 010°18'2222.3 1014.9 13.0
2017-Nov-18 05:00N 42°54' E 010°00'1918.5 1015.0 13.6
2017-Nov-18 04:00N 43°12' E 009°54'2222.3 1014.3 14.2
2017-Nov-18 03:00N 43°30' E 009°36'2625.5 1015.5 14.7
2017-Nov-18 02:00N 43°54' E 009°24'2222.2 1015.2 15.3
2017-Nov-18 01:00N 44°12' E 009°06'13 2.5 1015.6 15.7
2017-Nov-17 20:00N 44°24' E 009°00'2019.9 1015.2 13.4
2017-Nov-17 19:00N 44°06' E 009°12'2020.0 1015.2 15.7
2017-Nov-17 18:00N 43°48' E 009°24'2222.2 1015.2 15.5
2017-Nov-17 17:00N 43°30' E 009°42'2020.0 1015.0 15.0
2017-Nov-17 16:00N 43°12' E 009°54'2424.4 1013.9 15.8
2017-Nov-17 15:00N 42°48' E 010°00'2222.3 1013.5 16.5
2017-Nov-17 14:00N 42°30' E 010°18'1817.9 1013.3 16.3
2017-Nov-17 13:00N 42°18' E 010°36'2727.5 1013.7 16.0
2017-Nov-17 12:00N 41°54' E 010°54'2020.1 1013.8 15.5
2017-Nov-17 11:00N 41°36' E 011°06'2020.1 1013.7 15.2
2017-Nov-17 10:00N 41°18' E 011°18'2020.1 1014.0 16.4
2017-Nov-17 09:00N 41°00' E 011°30'2020.2 1013.7 16.6
2017-Nov-17 08:00N 40°42' E 011°42'2020.2 1013.3 16.8
2017-Nov-17 07:00N 40°24' E 011°54'2827.7 1012.5 17.4
2017-Nov-17 06:00N 40°00' E 012°12'2020.2 1011.1 17.2
2017-Nov-17 05:00N 39°42' E 012°24'2020.2 1010.1 17.1
2017-Nov-17 04:00N 39°24' E 012°36'2020.3 1009.7 16.3
2017-Nov-17 03:00N 39°06' E 012°48'2020.3 1010.2 15.0
2017-Nov-17 02:00N 38°48' E 013°00'2020.3 1009.6 16.1
2017-Nov-17 01:00N 38°30' E 013°12'2020.3 1010.5 14.8
2017-Nov-17 00:00N 38°12' E 013°24'6 1.5 1011.4 15.6
2017-Nov-16 20:00N 38°06' E 013°24'1312.9 1012.1 15.3
2017-Nov-16 19:00N 38°18' E 013°18'2020.3 1011.7 16.5
2017-Nov-16 18:00N 38°36' E 013°06'2827.8 1011.7 16.6
2017-Nov-16 17:00N 39°00' E 012°48'2020.3 1011.8 16.8
2017-Nov-16 16:00N 39°18' E 012°36'2020.2 1011.9 16.7
2017-Nov-16 15:00N 39°36' E 012°24'2020.2 1012.1 16.6
2017-Nov-16 14:00N 39°54' E 012°12'2827.7 1012.3 16.4
2017-Nov-16 13:00N 40°18' E 011°54'2020.2 1012.7 17.4
2017-Nov-16 12:00N 40°36' E 011°42'2020.2 1012.9 17.5
2017-Nov-16 11:00N 40°54' E 011°30'2625.6 1013.7 16.8
2017-Nov-16 10:00N 41°18' E 011°18'2020.1 1014.7 16.2
2017-Nov-16 09:00N 41°36' E 011°06'2020.1 1015.1 14.5
2017-Nov-16 08:00N 41°54' E 010°54'2727.5 1015.3 14.0
2017-Nov-16 07:00N 42°18' E 010°36'1817.9 1015.2 13.2
2017-Nov-16 06:00N 42°30' E 010°18'2222.3 1015.3 13.4
2017-Nov-16 05:00N 42°48' E 010°00'2424.4 1016.1 13.0
2017-Nov-16 04:00N 43°12' E 009°54'2020.0 1015.6 13.6
2017-Nov-16 03:00N 43°30' E 009°42'2222.2 1016.9 13.8
2017-Nov-16 02:00N 43°48' E 009°24'2020.0 1017.6 14.9
2017-Nov-16 01:00N 44°06' E 009°12'2222.1 1017.8 14.8
2017-Nov-16 00:00N 44°24' E 008°54'4 0.9 1018.8 14.0
2017-Nov-15 19:00N 44°24' E 009°00'1312.7 1017.2 13.7
2017-Nov-15 18:00N 44°12' E 009°06'2222.2 1016.7 16.4
2017-Nov-15 17:00N 43°54' E 009°24'2020.0 1016.0 16.4
2017-Nov-15 16:00N 43°36' E 009°36'2222.2 1016.2 14.8
2017-Nov-15 15:00N 43°18' E 009°54'2424.4 1015.2 14.7
2017-Nov-15 14:00N 42°54' E 010°00'2020.0 1013.0 14.5
2017-Nov-15 13:00N 42°36' E 010°12'2121.4 1013.2 15.7
2017-Nov-15 12:00N 42°24' E 010°36'2222.4 1011.2 14.6
2017-Nov-15 11:00N 42°06' E 010°54'2222.4 1011.7 15.0
2017-Nov-15 10:00N 41°48' E 011°12'1818.0 1010.1 14.2
2017-Nov-15 09:00N 41°36' E 011°30'2222.5 1009.8 15.0
2017-Nov-15 08:00N 41°18' E 011°48'2322.5 1008.8 14.9
2017-Nov-15 07:00N 41°00' E 012°06'2020.2 1007.5 15.2
2017-Nov-15 06:00N 40°42' E 012°18'2625.7 1006.4 14.8
2017-Nov-15 05:00N 40°18' E 012°30'1918.6 1005.3 14.0
2017-Nov-15 04:00N 40°00' E 012°36'2424.4 1004.5 13.8
2017-Nov-15 03:00N 39°36' E 012°42'2424.4 1004.3 13.5
2017-Nov-15 02:00N 39°12' E 012°48'1918.6 1004.5 14.1
2017-Nov-15 01:00N 38°54' E 012°54'2020.3 1004.4 14.8
2017-Nov-15 00:00N 38°36' E 013°06'2322.9 1005.0 14.9
2017-Nov-14 23:00N 38°18' E 013°24'12 2.4 1005.1 14.4
2017-Nov-14 18:00N 38°06' E 013°24'6 6.0 1005.1 13.9
2017-Nov-14 17:00N 38°12' E 013°24'2020.3 1003.9 15.3
2017-Nov-14 16:00N 38°30' E 013°12'2625.8 1003.5 15.0
2017-Nov-14 15:00N 38°54' E 013°00'2020.3 1003.1 15.6
2017-Nov-14 14:00N 39°12' E 012°48'1918.6 1003.0 16.2
2017-Nov-14 13:00N 39°30' E 012°42'2625.7 1003.2 15.8
2017-Nov-14 12:00N 39°54' E 012°30'2020.2 1003.7 14.3
2017-Nov-14 11:00N 40°12' E 012°18'2625.7 1003.9 14.3
2017-Nov-14 10:00N 40°36' E 012°06'2020.2 1003.7 13.2
2017-Nov-14 09:00N 40°54' E 011°54'2322.5 1003.7 13.0
2017-Nov-14 08:00N 41°12' E 011°36'2020.1 1003.7 13.0
2017-Nov-14 07:00N 41°30' E 011°24'2222.5 1003.1 12.7
2017-Nov-14 06:00N 41°48' E 011°06'2222.4 1002.6 12.4
2017-Nov-14 05:00N 42°06' E 010°48'2222.4 1003.3 11.5
2017-Nov-14 04:00N 42°24' E 010°30'1817.9 1004.9 10.8
2017-Nov-14 03:00N 42°36' E 010°12'2625.6 1004.0 10.9
2017-Nov-14 02:00N 43°00' E 010°00'2020.0 1006.9 11.8
2017-Nov-14 01:00N 43°18' E 009°48'2020.0 1006.4 11.9
2017-Nov-14 00:00N 43°36' E 009°36'2222.2 1006.4 12.3
2017-Nov-13 23:00N 43°54' E 009°18'2222.2 1007.3 11.6
2017-Nov-13 22:00N 44°12' E 009°00'13 4.2 1008.0 11.9
2017-Nov-13 19:00N 44°24' E 008°54'0 0.0 1005.7 11.5
2017-Nov-13 10:00N 44°24' E 008°54'0 0.0 998.2 11.8
2017-Nov-13 06:00N 44°24' E 008°54'7 0.8 993.8 11.2
2017-Nov-12 21:00N 44°18' E 009°00'2222.2 995.9 16.5
2017-Nov-12 20:00N 44°00' E 009°18'2020.0 995.6 16.9
2017-Nov-12 19:00N 43°42' E 009°30'2020.0 997.7 17.5
2017-Nov-12 18:00N 43°24' E 009°42'2222.3 998.1 18.0
2017-Nov-12 17:00N 43°06' E 010°00'   1001.3 17.9
Track history (hours):
 
Tides and Currents Weather Stations Pressure Air Temp Water Temp Dewpoint Dewpoint Depression Visibility Wind Speed Wind Dir Waves Ship Positions

Callsign BAREU51 (name unknown)

Last reported at 2017-Nov-22 17:00 UTC. Time now 2017-Nov-22 18:14 UTC.
Position N 43°54' E 009°24'.

Barometer 1018.8 mb
Air temperature 16.2 ° C

Date/timePositionNaut miles runAvg speedWind from/ knotsBaromVisibWave heightAir tempDewpointWater temp
2017-Nov-22 17:00N 43°54' E 009°24'2020.0 1018.8 16.2
2017-Nov-22 16:00N 43°36' E 009°36'2222.2 1018.8 16.0
2017-Nov-22 15:00N 43°18' E 009°54'2424.4 1018.7 16.4
2017-Nov-22 14:00N 42°54' E 010°00'2020.0 1018.2 16.7
2017-Nov-22 13:00N 42°36' E 010°12'2525.3 1018.7 16.4
2017-Nov-22 12:00N 42°18' E 010°36'2020.1 1019.2 16.3
2017-Nov-22 11:00N 42°00' E 010°48'2222.4 1019.7 16.4
2017-Nov-22 10:00N 41°42' E 011°06'2625.6 1020.5 17.3
2017-Nov-22 09:00N 41°18' E 011°18'2020.1 1020.4 18.4
2017-Nov-22 08:00N 41°00' E 011°30'2020.2 1020.7 18.2
2017-Nov-22 07:00N 40°42' E 011°42'2020.2 1020.3 17.1
2017-Nov-22 06:00N 40°24' E 011°54'2625.7 1020.5 16.5
2017-Nov-22 05:00N 40°00' E 012°06'2322.7 1020.2 16.5
2017-Nov-22 04:00N 39°42' E 012°24'2020.2 1020.1 16.3
2017-Nov-22 03:00N 39°24' E 012°36'2020.3 1020.3 16.3
2017-Nov-22 02:00N 39°06' E 012°48'2625.8 1020.8 16.5
2017-Nov-22 01:00N 38°42' E 013°00'4120.3 1020.7 16.5
2017-Nov-21 23:00N 38°06' E 013°24'0 0.0 1021.4 16.1
2017-Nov-21 18:00N 38°06' E 013°24'1918.6 1021.0 17.2
2017-Nov-21 17:00N 38°24' E 013°18'2322.9 1020.7 16.9
2017-Nov-21 16:00N 38°42' E 013°00'2020.3 1020.1 16.8
2017-Nov-21 15:00N 39°00' E 012°48'2625.7 1019.8 17.3
2017-Nov-21 14:00N 39°24' E 012°36'1515.2 1019.5 16.8
2017-Nov-21 13:00N 39°36' E 012°24'2625.7 1019.5 17.5
2017-Nov-21 12:00N 40°00' E 012°12'2020.2 1019.7 18.2
2017-Nov-21 11:00N 40°18' E 012°00'2322.6 1019.9 17.9
2017-Nov-21 10:00N 40°36' E 011°42'2625.7 1020.2 17.3
2017-Nov-21 09:00N 41°00' E 011°30'2020.1 1020.0 16.7
2017-Nov-21 08:00N 41°18' E 011°18'2625.6 1020.0 15.3
2017-Nov-21 07:00N 41°42' E 011°06'2222.4 1019.1 14.8
2017-Nov-21 06:00N 42°00' E 010°48'2020.1 1018.3 14.9
2017-Nov-21 05:00N 42°18' E 010°36'2222.4 1017.8 15.4
2017-Nov-21 04:00N 42°36' E 010°18'2222.3 1017.9 15.3
2017-Nov-21 03:00N 42°54' E 010°00'1918.5 1017.9 15.4
2017-Nov-21 02:00N 43°12' E 009°54'2222.3 1017.9 16.1
2017-Nov-21 01:00N 43°30' E 009°36'2020.0 1018.0 15.9
2017-Nov-21 00:00N 43°48' E 009°24'2222.2 1018.5 15.7
2017-Nov-20 23:00N 44°06' E 009°06'2019.9 1018.2 15.7
2017-Nov-20 22:00N 44°24' E 008°54'0 0.0 1019.2 14.2
2017-Nov-20 08:00N 44°24' E 008°54'0 0.0 1019.9 13.4
2017-Nov-19 22:00N 44°24' E 008°54'4 4.3 1016.6 12.3
2017-Nov-19 21:00N 44°24' E 009°00'2525.5 1015.3 14.3
2017-Nov-19 20:00N 44°00' E 009°12'2222.2 1014.8 14.9
2017-Nov-19 19:00N 43°42' E 009°30'2020.0 1013.9 15.3
2017-Nov-19 18:00N 43°24' E 009°42'2222.3 1013.3 15.4
2017-Nov-19 17:00N 43°06' E 010°00'2424.4 1012.7 15.6
2017-Nov-19 16:00N 42°42' E 010°06'1817.9 1012.9 14.6
2017-Nov-19 15:00N 42°30' E 010°24'2222.4 1012.4 15.2
2017-Nov-19 14:00N 42°12' E 010°42'2625.6 1012.0 15.2
2017-Nov-19 13:00N 41°48' E 010°54'2020.1 1012.2 15.4
2017-Nov-19 12:00N 41°30' E 011°06'2020.1 1013.9 15.6
2017-Nov-19 11:00N 41°12' E 011°18'2020.1 1014.1 16.2
2017-Nov-19 10:00N 40°54' E 011°30'2827.6 1014.3 16.2
2017-Nov-19 09:00N 40°30' E 011°48'2020.2 1014.4 16.3
2017-Nov-19 08:00N 40°12' E 012°00'2020.2 1014.5 16.4
2017-Nov-19 07:00N 39°54' E 012°12'2020.2 1014.4 15.9
2017-Nov-19 06:00N 39°36' E 012°24'2020.2 1013.8 15.8
2017-Nov-19 05:00N 39°18' E 012°36'2020.3 1013.3 15.8
2017-Nov-19 04:00N 39°00' E 012°48'2020.3 1012.9 16.7
2017-Nov-19 03:00N 38°42' E 013°00'2322.9 1013.3 16.6
2017-Nov-19 02:00N 38°24' E 013°18'19 3.1 1013.2 16.7
2017-Nov-18 20:00N 38°06' E 013°24'1312.9 1015.3 16.7
2017-Nov-18 19:00N 38°18' E 013°18'2020.3 1014.7 17.2
2017-Nov-18 18:00N 38°36' E 013°06'2625.8 1014.3 17.0
2017-Nov-18 17:00N 39°00' E 012°54'2322.8 1014.1 16.9
2017-Nov-18 16:00N 39°18' E 012°36'2020.2 1013.7 16.5
2017-Nov-18 15:00N 39°36' E 012°24'2625.7 1013.4 16.4
2017-Nov-18 14:00N 40°00' E 012°12'2322.7 1013.6 16.9
2017-Nov-18 13:00N 40°18' E 011°54'2625.7 1013.7 17.7
2017-Nov-18 12:00N 40°42' E 011°42'2020.2 1014.1 16.8
2017-Nov-18 11:00N 41°00' E 011°30'2020.1 1014.5 16.2
2017-Nov-18 10:00N 41°18' E 011°18'2625.6 1015.1 14.7
2017-Nov-18 09:00N 41°42' E 011°06'2222.4 1015.2 13.9
2017-Nov-18 08:00N 42°00' E 010°48'2020.1 1015.2 14.4
2017-Nov-18 07:00N 42°18' E 010°36'2222.4 1014.7 13.4
2017-Nov-18 06:00N 42°36' E 010°18'2222.3 1014.9 13.0
2017-Nov-18 05:00N 42°54' E 010°00'1918.5 1015.0 13.6
2017-Nov-18 04:00N 43°12' E 009°54'2222.3 1014.3 14.2
2017-Nov-18 03:00N 43°30' E 009°36'2625.5 1015.5 14.7
2017-Nov-18 02:00N 43°54' E 009°24'2222.2 1015.2 15.3
2017-Nov-18 01:00N 44°12' E 009°06'13 2.5 1015.6 15.7
2017-Nov-17 20:00N 44°24' E 009°00'2019.9 1015.2 13.4
2017-Nov-17 19:00N 44°06' E 009°12'2020.0 1015.2 15.7
2017-Nov-17 18:00N 43°48' E 009°24'2222.2 1015.2 15.5
2017-Nov-17 17:00N 43°30' E 009°42'2020.0 1015.0 15.0
2017-Nov-17 16:00N 43°12' E 009°54'2424.4 1013.9 15.8
2017-Nov-17 15:00N 42°48' E 010°00'2222.3 1013.5 16.5
2017-Nov-17 14:00N 42°30' E 010°18'1817.9 1013.3 16.3
2017-Nov-17 13:00N 42°18' E 010°36'2727.5 1013.7 16.0
2017-Nov-17 12:00N 41°54' E 010°54'2020.1 1013.8 15.5
2017-Nov-17 11:00N 41°36' E 011°06'2020.1 1013.7 15.2
2017-Nov-17 10:00N 41°18' E 011°18'2020.1 1014.0 16.4
2017-Nov-17 09:00N 41°00' E 011°30'2020.2 1013.7 16.6
2017-Nov-17 08:00N 40°42' E 011°42'2020.2 1013.3 16.8
2017-Nov-17 07:00N 40°24' E 011°54'2827.7 1012.5 17.4
2017-Nov-17 06:00N 40°00' E 012°12'2020.2 1011.1 17.2
2017-Nov-17 05:00N 39°42' E 012°24'2020.2 1010.1 17.1
2017-Nov-17 04:00N 39°24' E 012°36'2020.3 1009.7 16.3
2017-Nov-17 03:00N 39°06' E 012°48'2020.3 1010.2 15.0
2017-Nov-17 02:00N 38°48' E 013°00'2020.3 1009.6 16.1
2017-Nov-17 01:00N 38°30' E 013°12'2020.3 1010.5 14.8
2017-Nov-17 00:00N 38°12' E 013°24'6 1.5 1011.4 15.6
2017-Nov-16 20:00N 38°06' E 013°24'1312.9 1012.1 15.3
2017-Nov-16 19:00N 38°18' E 013°18'2020.3 1011.7 16.5
2017-Nov-16 18:00N 38°36' E 013°06'2827.8 1011.7 16.6
2017-Nov-16 17:00N 39°00' E 012°48'2020.3 1011.8 16.8
2017-Nov-16 16:00N 39°18' E 012°36'2020.2 1011.9 16.7
2017-Nov-16 15:00N 39°36' E 012°24'2020.2 1012.1 16.6
2017-Nov-16 14:00N 39°54' E 012°12'2827.7 1012.3 16.4
2017-Nov-16 13:00N 40°18' E 011°54'2020.2 1012.7 17.4
2017-Nov-16 12:00N 40°36' E 011°42'2020.2 1012.9 17.5
2017-Nov-16 11:00N 40°54' E 011°30'2625.6 1013.7 16.8
2017-Nov-16 10:00N 41°18' E 011°18'2020.1 1014.7 16.2
2017-Nov-16 09:00N 41°36' E 011°06'2020.1 1015.1 14.5
2017-Nov-16 08:00N 41°54' E 010°54'2727.5 1015.3 14.0
2017-Nov-16 07:00N 42°18' E 010°36'1817.9 1015.2 13.2
2017-Nov-16 06:00N 42°30' E 010°18'2222.3 1015.3 13.4
2017-Nov-16 05:00N 42°48' E 010°00'2424.4 1016.1 13.0
2017-Nov-16 04:00N 43°12' E 009°54'2020.0 1015.6 13.6
2017-Nov-16 03:00N 43°30' E 009°42'2222.2 1016.9 13.8
2017-Nov-16 02:00N 43°48' E 009°24'2020.0 1017.6 14.9
2017-Nov-16 01:00N 44°06' E 009°12'2222.1 1017.8 14.8
2017-Nov-16 00:00N 44°24' E 008°54'4 0.9 1018.8 14.0
2017-Nov-15 19:00N 44°24' E 009°00'1312.7 1017.2 13.7
2017-Nov-15 18:00N 44°12' E 009°06'2222.2 1016.7 16.4
2017-Nov-15 17:00N 43°54' E 009°24'2020.0 1016.0 16.4
2017-Nov-15 16:00N 43°36' E 009°36'2222.2 1016.2 14.8
2017-Nov-15 15:00N 43°18' E 009°54'2424.4 1015.2 14.7
2017-Nov-15 14:00N 42°54' E 010°00'2020.0 1013.0 14.5
2017-Nov-15 13:00N 42°36' E 010°12'2121.4 1013.2 15.7
2017-Nov-15 12:00N 42°24' E 010°36'2222.4 1011.2 14.6
2017-Nov-15 11:00N 42°06' E 010°54'2222.4 1011.7 15.0
2017-Nov-15 10:00N 41°48' E 011°12'1818.0 1010.1 14.2
2017-Nov-15 09:00N 41°36' E 011°30'2222.5 1009.8 15.0
2017-Nov-15 08:00N 41°18' E 011°48'2322.5 1008.8 14.9
2017-Nov-15 07:00N 41°00' E 012°06'2020.2 1007.5 15.2
2017-Nov-15 06:00N 40°42' E 012°18'2625.7 1006.4 14.8
2017-Nov-15 05:00N 40°18' E 012°30'1918.6 1005.3 14.0
2017-Nov-15 04:00N 40°00' E 012°36'2424.4 1004.5 13.8
2017-Nov-15 03:00N 39°36' E 012°42'2424.4 1004.3 13.5
2017-Nov-15 02:00N 39°12' E 012°48'1918.6 1004.5 14.1
2017-Nov-15 01:00N 38°54' E 012°54'2020.3 1004.4 14.8
2017-Nov-15 00:00N 38°36' E 013°06'2322.9 1005.0 14.9
2017-Nov-14 23:00N 38°18' E 013°24'12 2.4 1005.1 14.4
2017-Nov-14 18:00N 38°06' E 013°24'6 6.0 1005.1 13.9
2017-Nov-14 17:00N 38°12' E 013°24'2020.3 1003.9 15.3
2017-Nov-14 16:00N 38°30' E 013°12'2625.8 1003.5 15.0
2017-Nov-14 15:00N 38°54' E 013°00'2020.3 1003.1 15.6
2017-Nov-14 14:00N 39°12' E 012°48'1918.6 1003.0 16.2
2017-Nov-14 13:00N 39°30' E 012°42'2625.7 1003.2 15.8
2017-Nov-14 12:00N 39°54' E 012°30'2020.2 1003.7 14.3
2017-Nov-14 11:00N 40°12' E 012°18'2625.7 1003.9 14.3
2017-Nov-14 10:00N 40°36' E 012°06'2020.2 1003.7 13.2
2017-Nov-14 09:00N 40°54' E 011°54'2322.5 1003.7 13.0
2017-Nov-14 08:00N 41°12' E 011°36'2020.1 1003.7 13.0
2017-Nov-14 07:00N 41°30' E 011°24'2222.5 1003.1 12.7
2017-Nov-14 06:00N 41°48' E 011°06'2222.4 1002.6 12.4
2017-Nov-14 05:00N 42°06' E 010°48'2222.4 1003.3 11.5
2017-Nov-14 04:00N 42°24' E 010°30'1817.9 1004.9 10.8
2017-Nov-14 03:00N 42°36' E 010°12'2625.6 1004.0 10.9
2017-Nov-14 02:00N 43°00' E 010°00'2020.0 1006.9 11.8
2017-Nov-14 01:00N 43°18' E 009°48'2020.0 1006.4 11.9
2017-Nov-14 00:00N 43°36' E 009°36'2222.2 1006.4 12.3
2017-Nov-13 23:00N 43°54' E 009°18'2222.2 1007.3 11.6
2017-Nov-13 22:00N 44°12' E 009°00'13 4.2 1008.0 11.9
2017-Nov-13 19:00N 44°24' E 008°54'0 0.0 1005.7 11.5
2017-Nov-13 10:00N 44°24' E 008°54'0 0.0 998.2 11.8
2017-Nov-13 06:00N 44°24' E 008°54'7 0.8 993.8 11.2
2017-Nov-12 21:00N 44°18' E 009°00'2222.2 995.9 16.5
2017-Nov-12 20:00N 44°00' E 009°18'2020.0 995.6 16.9
2017-Nov-12 19:00N 43°42' E 009°30'2020.0 997.7 17.5
2017-Nov-12 18:00N 43°24' E 009°42'2222.3 998.1 18.0
2017-Nov-12 17:00N 43°06' E 010°00'   1001.3 17.9

Dump ship's entire track history